createdAt,value
2018-06-02T00:00:05.357Z,80.4
2018-06-02T00:15:04.532Z,80.7
2018-06-02T00:30:05.294Z,81.1
2018-06-02T00:45:05.499Z,81.4
2018-06-02T01:00:04.818Z,81.9
2018-06-02T01:15:04.861Z,82.1
2018-06-02T01:30:04.787Z,80.6
2018-06-02T01:45:04.638Z,80.4
2018-06-02T02:00:05.408Z,81.7
2018-06-02T02:15:04.450Z,81.3
2018-06-02T02:30:04.367Z,80.4
2018-06-02T02:45:05.535Z,79.4
2018-06-02T03:00:04.791Z,80.6
2018-06-02T03:15:04.849Z,81.5
2018-06-02T03:30:04.718Z,82
2018-06-02T03:45:05.101Z,80.5
2018-06-02T04:00:04.838Z,80.9
2018-06-02T04:15:04.770Z,81.5
2018-06-02T04:30:05.270Z,82.1
2018-06-02T04:45:04.846Z,82.4
2018-06-02T05:00:05.363Z,81.7
2018-06-02T05:15:04.626Z,81
2018-06-02T05:30:05.409Z,80.8
2018-06-02T05:45:04.613Z,82.2
2018-06-02T06:00:09.794Z,82.4
2018-06-02T06:15:09.977Z,81.3
2018-06-02T06:30:05.298Z,78.4
2018-06-02T06:45:05.447Z,78
2018-06-02T07:00:04.544Z,77.1
2018-06-02T07:15:04.754Z,76.1
2018-06-02T07:30:05.059Z,75.1
2018-06-02T07:45:05.295Z,75.8
2018-06-02T08:00:05.203Z,73
2018-06-02T08:15:05.373Z,71.3
2018-06-02T08:30:04.777Z,68.6
2018-06-02T08:45:04.798Z,68.2
2018-06-02T09:00:04.957Z,64.8
2018-06-02T09:15:05.019Z,62.8
2018-06-02T09:30:05.765Z,63.6
2018-06-02T09:45:05.179Z,63.3
2018-06-02T10:00:05.419Z,64.7
2018-06-02T10:15:04.841Z,61.8
2018-06-02T10:45:04.748Z,61
2018-06-02T11:00:05.400Z,61.8
2018-06-02T11:15:04.868Z,64.8
2018-06-02T11:30:04.504Z,62.7
2018-06-02T11:45:05.065Z,61
2018-06-02T12:00:04.552Z,60.7
2018-06-02T12:15:05.277Z,61.4
2018-06-02T12:30:05.020Z,60.7
2018-06-02T12:45:04.665Z,61.1
2018-06-02T13:00:05.138Z,61.1
2018-06-02T13:15:04.563Z,60.4
2018-06-02T13:30:05.419Z,61.7
2018-06-02T13:45:04.954Z,58.4
2018-06-02T14:00:04.435Z,60.1
2018-06-02T14:15:05.001Z,58
2018-06-02T14:30:04.645Z,56.8
2018-06-02T14:45:05.115Z,56.6
2018-06-02T15:00:04.575Z,55.8
2018-06-02T15:15:05.017Z,55.4
2018-06-02T15:30:05.279Z,54.7
2018-06-02T15:45:05.024Z,54.8
2018-06-02T16:00:11.082Z,54.2
2018-06-02T16:15:05.121Z,53.8
2018-06-02T16:30:05.168Z,54.9
2018-06-02T16:45:04.889Z,55.1
2018-06-02T17:00:04.734Z,55
2018-06-02T17:15:05.308Z,55
2018-06-02T17:30:05.234Z,55.2
2018-06-02T17:45:05.159Z,57.8
2018-06-02T18:00:05.270Z,57.9
2018-06-02T18:15:04.671Z,60.1
2018-06-02T18:30:05.018Z,60.4
2018-06-02T18:45:04.962Z,61.2
2018-06-02T19:00:04.455Z,61.8
2018-06-02T19:15:04.390Z,61.6
2018-06-02T19:30:04.549Z,61.7
2018-06-02T19:45:04.511Z,61.8
2018-06-02T20:00:04.485Z,64.3
2018-06-02T20:15:04.425Z,65.8
2018-06-02T20:30:05.216Z,66.4
2018-06-02T20:45:05.164Z,67.2
2018-06-02T21:00:05.452Z,69.1
2018-06-02T21:15:04.422Z,69.1
2018-06-02T21:30:05.268Z,69.9
2018-06-02T21:45:05.250Z,70.1
2018-06-02T22:00:04.895Z,70.8
2018-06-02T22:15:04.862Z,71.4
2018-06-02T22:30:05.051Z,72.2
2018-06-02T22:45:05.291Z,72.3
2018-06-02T23:00:04.792Z,72.6
2018-06-02T23:15:04.756Z,73.6
2018-06-02T23:30:04.929Z,73.2
2018-06-02T23:45:04.916Z,73
